Time,TemperatureF,DewpointF,PressureIn,WindDirection,WindDirectionDegrees,WindSpeedMPH,WindSpeedGustMPH,Humidity,HourlyPrecipIn,Conditions,Clouds,dailyrainin,SoftwareType,DateUTC
2013-01-14 00:12:00,50.6,49.0,29.85,West,268,1.0,-999.0,93,-99.99,,,0.00,weatherlink.com 1.10,2013-01-14 05:12:00,
2013-01-14 00:27:00,50.6,49.0,29.86,WSW,252,4.0,-999.0,93,-99.99,,,0.00,weatherlink.com 1.10,2013-01-14 05:27:00,
2013-01-14 00:42:00,50.6,49.0,29.86,West,277,3.0,-999.0,93,-99.99,,,0.00,weatherlink.com 1.10,2013-01-14 05:42:00,
2013-01-14 00:57:00,50.4,49.0,29.84,ENE,61,0.0,-999.0,93,-99.99,,,0.00,weatherlink.com 1.10,2013-01-14 05:57:00,
2013-01-14 01:12:00,50.1,48.0,29.84,SSW,207,0.0,-999.0,93,-99.99,,,0.00,weatherlink.com 1.10,2013-01-14 06:12:00,
2013-01-14 01:27:00,50.2,48.0,29.84,West,274,1.0,-999.0,93,-99.99,,,0.00,weatherlink.com 1.10,2013-01-14 06:27:00,
2013-01-14 01:42:00,50.1,48.0,29.84,SW,232,0.0,-999.0,93,-99.99,,,0.00,weatherlink.com 1.10,2013-01-14 06:42:00,
2013-01-14 01:57:00,50.0,48.0,29.85,WNW,288,0.0,-999.0,93,-99.99,,,0.00,weatherlink.com 1.10,2013-01-14 06:57:00,
2013-01-14 02:12:00,50.1,48.0,29.85,NW,319,0.0,-999.0,93,-99.99,,,0.00,weatherlink.com 1.10,2013-01-14 07:12:00,
2013-01-14 02:27:00,49.9,48.0,29.85,WNW,297,0.0,-999.0,94,-99.99,,,0.00,weatherlink.com 1.10,2013-01-14 07:27:00,
2013-01-14 02:42:00,49.9,48.0,29.84,WSW,254,4.0,-999.0,94,-99.99,,,0.00,weatherlink.com 1.10,2013-01-14 07:42:00,
2013-01-14 02:57:00,49.9,49.0,29.85,WSW,246,0.0,-999.0,95,-99.99,,,0.00,weatherlink.com 1.10,2013-01-14 07:57:00,
2013-01-14 03:12:00,49.9,49.0,29.84,NW,313,0.0,-999.0,95,-99.99,,,0.00,weatherlink.com 1.10,2013-01-14 08:12:00,
2013-01-14 03:27:00,49.6,48.0,29.83,SW,214,0.0,-999.0,95,-99.99,,,0.00,weatherlink.com 1.10,2013-01-14 08:27:00,
2013-01-14 03:42:00,49.6,49.0,29.82,WSW,240,0.0,-999.0,96,-99.99,,,0.00,weatherlink.com 1.10,2013-01-14 08:42:00,
2013-01-14 03:57:00,49.7,49.0,29.81,West,267,0.0,-999.0,96,-99.99,,,0.00,weatherlink.com 1.10,2013-01-14 08:57:00,
2013-01-14 04:12:00,50.0,49.0,29.80,West,275,3.0,-999.0,96,-99.99,,,0.00,weatherlink.com 1.10,2013-01-14 09:12:00,
2013-01-14 04:27:00,50.0,49.0,29.80,WSW,252,0.0,-999.0,96,-99.99,,,0.00,weatherlink.com 1.10,2013-01-14 09:27:00,
2013-01-14 04:42:00,50.2,49.0,29.79,WSW,246,0.0,-999.0,96,-99.99,,,0.00,weatherlink.com 1.10,2013-01-14 09:42:00,
2013-01-14 04:57:00,50.4,49.0,29.79,West,275,4.0,-999.0,96,-99.99,,,0.00,weatherlink.com 1.10,2013-01-14 09:57:00,
2013-01-14 05:12:00,50.3,49.0,29.79,WSW,252,4.0,-999.0,95,-99.99,,,0.00,weatherlink.com 1.10,2013-01-14 10:12:00,
2013-01-14 05:27:00,50.3,49.0,29.80,West,268,4.0,-999.0,95,-99.99,,,0.00,weatherlink.com 1.10,2013-01-14 10:27:00,
2013-01-14 05:42:00,50.2,49.0,29.78,WSW,237,4.0,-999.0,95,-99.99,,,0.00,weatherlink.com 1.10,2013-01-14 10:42:00,
2013-01-14 05:57:00,50.0,48.0,29.77,SW,229,2.0,-999.0,94,-99.99,,,0.00,weatherlink.com 1.10,2013-01-14 10:57:00,
2013-01-14 06:12:00,49.9,48.0,29.76,WSW,248,5.0,-999.0,94,-99.99,,,0.00,weatherlink.com 1.10,2013-01-14 11:12:00,
2013-01-14 06:27:00,49.9,48.0,29.75,WNW,289,0.0,-999.0,94,-99.99,,,0.00,weatherlink.com 1.10,2013-01-14 11:27:00,
2013-01-14 06:42:00,50.3,49.0,29.72,West,275,6.0,-999.0,94,-99.99,,,0.00,weatherlink.com 1.10,2013-01-14 11:42:00,
2013-01-14 06:57:00,50.7,49.0,29.75,NW,324,0.0,-999.0,94,-99.99,,,0.00,weatherlink.com 1.10,2013-01-14 11:57:00,
2013-01-14 07:12:00,50.8,49.0,29.77,NNE,12,0.0,-999.0,93,-99.99,,,0.00,weatherlink.com 1.10,2013-01-14 12:12:00,
2013-01-14 07:27:00,50.8,49.0,29.78,WSW,249,0.0,-999.0,93,-99.99,,,0.00,weatherlink.com 1.10,2013-01-14 12:27:00,
2013-01-14 07:42:00,50.6,49.0,29.80,SW,231,0.0,-999.0,93,-99.99,,,0.00,weatherlink.com 1.10,2013-01-14 12:42:00,
2013-01-14 07:57:00,50.5,49.0,29.80,North,9,0.0,-999.0,93,-99.99,,,0.00,weatherlink.com 1.10,2013-01-14 12:57:00,
2013-01-14 08:12:00,50.5,49.0,29.81,WSW,252,0.0,-999.0,94,-99.99,,,0.00,weatherlink.com 1.10,2013-01-14 13:12:00,
2013-01-14 08:27:00,50.6,49.0,29.82,SSW,206,0.0,-999.0,94,-99.99,,,0.00,weatherlink.com 1.10,2013-01-14 13:27:00,
2013-01-14 08:42:00,50.7,49.0,29.82,NNW,328,0.0,-999.0,94,-99.99,,,0.00,weatherlink.com 1.10,2013-01-14 13:42:00,
2013-01-14 08:57:00,51.0,49.0,29.83,WSW,245,0.0,-999.0,94,-99.99,,,0.00,weatherlink.com 1.10,2013-01-14 13:57:00,
2013-01-14 09:12:00,51.2,49.0,29.83,WSW,242,0.0,-999.0,93,-99.99,,,0.00,weatherlink.com 1.10,2013-01-14 14:12:00,
2013-01-14 09:27:00,51.5,50.0,29.84,NW,322,1.0,-999.0,93,-99.99,,,0.00,weatherlink.com 1.10,2013-01-14 14:27:00,
2013-01-14 09:42:00,52.3,50.0,29.84,West,261,0.0,-999.0,92,-99.99,,,0.00,weatherlink.com 1.10,2013-01-14 14:42:00,
2013-01-14 09:57:00,53.1,51.0,29.86,WNW,284,0.0,-999.0,91,-99.99,,,0.00,weatherlink.com 1.10,2013-01-14 14:57:00,
2013-01-14 10:12:00,53.8,50.0,29.85,West,276,0.0,-999.0,88,-99.99,,,0.00,weatherlink.com 1.10,2013-01-14 15:12:00,
2013-01-14 10:27:00,54.9,51.0,29.85,SW,221,0.0,-999.0,87,-99.99,,,0.00,weatherlink.com 1.10,2013-01-14 15:27:00,
2013-01-14 10:42:00,55.1,51.0,29.84,NNW,333,0.0,-999.0,86,-99.99,,,0.00,weatherlink.com 1.10,2013-01-14 15:42:00,
2013-01-14 10:57:00,55.7,51.0,29.83,NNW,329,0.0,-999.0,85,-99.99,,,0.00,weatherlink.com 1.10,2013-01-14 15:57:00,
2013-01-14 11:12:00,56.4,51.0,29.84,WNW,292,0.0,-999.0,83,-99.99,,,0.00,weatherlink.com 1.10,2013-01-14 16:12:00,
2013-01-14 11:27:00,57.0,52.0,29.83,WSW,257,5.0,-999.0,82,-99.99,,,0.00,weatherlink.com 1.10,2013-01-14 16:27:00,
2013-01-14 11:42:00,56.3,51.0,29.83,NNW,348,1.0,-999.0,82,-99.99,,,0.00,weatherlink.com 1.10,2013-01-14 16:42:00,
2013-01-14 11:57:00,57.5,51.0,29.83,SW,226,1.0,-999.0,80,-99.99,,,0.00,weatherlink.com 1.10,2013-01-14 16:57:00,
2013-01-14 12:12:00,58.9,51.0,29.83,NNW,346,0.0,-999.0,75,-99.99,,,0.00,weatherlink.com 1.10,2013-01-14 17:12:00,
2013-01-14 12:27:00,59.5,51.0,29.83,WNW,289,0.0,-999.0,73,-99.99,,,0.00,weatherlink.com 1.10,2013-01-14 17:27:00,
2013-01-14 12:57:00,60.7,50.0,29.83,NNE,24,0.0,-999.0,69,-99.99,,,0.00,weatherlink.com 1.10,2013-01-14 17:57:00,
2013-01-14 13:12:00,60.9,50.0,29.84,WNW,292,0.0,-999.0,68,-99.99,,,0.00,weatherlink.com 1.10,2013-01-14 18:12:00,
2013-01-14 13:27:00,61.6,50.0,29.85,NW,319,0.0,-999.0,66,-99.99,,,0.00,weatherlink.com 1.10,2013-01-14 18:27:00,
2013-01-14 13:42:00,61.4,50.0,29.85,NW,323,0.0,-999.0,66,-99.99,,,0.00,weatherlink.com 1.10,2013-01-14 18:42:00,
2013-01-14 13:57:00,61.7,50.0,29.86,WNW,292,0.0,-999.0,65,-99.99,,,0.00,weatherlink.com 1.10,2013-01-14 18:57:00,
2013-01-14 14:12:00,61.2,49.0,29.88,NW,310,0.0,-999.0,64,-99.99,,,0.00,weatherlink.com 1.10,2013-01-14 19:12:00,
2013-01-14 14:27:00,61.4,46.0,29.88,NNE,17,0.0,-999.0,57,-99.99,,,0.00,weatherlink.com 1.10,2013-01-14 19:27:00,
2013-01-14 14:42:00,60.8,42.0,29.89,WNW,299,0.0,-999.0,51,-99.99,,,0.00,weatherlink.com 1.10,2013-01-14 19:42:00,
2013-01-14 14:57:00,59.9,40.0,29.91,NW,321,0.0,-999.0,49,-99.99,,,0.00,weatherlink.com 1.10,2013-01-14 19:57:00,
2013-01-14 15:12:00,58.6,39.0,29.92,SE,126,0.0,-999.0,48,-99.99,,,0.00,weatherlink.com 1.10,2013-01-14 20:12:00,
2013-01-14 15:27:00,57.2,39.0,29.93,WNW,287,3.0,-999.0,50,-99.99,,,0.00,weatherlink.com 1.10,2013-01-14 20:27:00,
2013-01-14 15:42:00,55.7,38.0,29.94,WSW,252,1.0,-999.0,51,-99.99,,,0.00,weatherlink.com 1.10,2013-01-14 20:42:00,
2013-01-14 15:57:00,54.3,37.0,29.96,NNE,22,0.0,-999.0,53,-99.99,,,0.00,weatherlink.com 1.10,2013-01-14 20:57:00,
2013-01-14 16:12:00,53.2,37.0,29.96,North,355,0.0,-999.0,55,-99.99,,,0.00,weatherlink.com 1.10,2013-01-14 21:12:00,
2013-01-14 16:27:00,52.6,37.0,29.96,North,9,5.0,-999.0,56,-99.99,,,0.00,weatherlink.com 1.10,2013-01-14 21:27:00,
2013-01-14 16:42:00,52.0,37.0,29.97,NW,309,0.0,-999.0,56,-99.99,,,0.00,weatherlink.com 1.10,2013-01-14 21:42:00,
2013-01-14 16:57:00,51.2,36.0,29.98,NW,318,0.0,-999.0,57,-99.99,,,0.00,weatherlink.com 1.10,2013-01-14 21:57:00,
2013-01-14 17:12:00,50.4,36.0,29.99,WSW,258,0.0,-999.0,58,-99.99,,,0.00,weatherlink.com 1.10,2013-01-14 22:12:00,
2013-01-14 17:27:00,49.2,35.0,29.99,NW,306,0.0,-999.0,58,-99.99,,,0.00,weatherlink.com 1.10,2013-01-14 22:27:00,
2013-01-14 17:42:00,48.6,34.0,30.00,NNE,17,0.0,-999.0,58,-99.99,,,0.00,weatherlink.com 1.10,2013-01-14 22:42:00,
2013-01-14 17:57:00,47.7,34.0,30.00,NNE,17,0.0,-999.0,60,-99.99,,,0.00,weatherlink.com 1.10,2013-01-14 22:57:00,
2013-01-14 18:12:00,46.2,34.0,29.99,NNE,22,0.0,-999.0,63,-99.99,,,0.00,weatherlink.com 1.10,2013-01-14 23:12:00,
2013-01-14 18:27:00,46.0,33.0,30.01,NW,306,0.0,-999.0,60,-99.99,,,0.00,weatherlink.com 1.10,2013-01-14 23:27:00,
2013-01-14 18:42:00,45.8,32.0,30.01,NW,308,0.0,-999.0,60,-99.99,,,0.00,weatherlink.com 1.10,2013-01-14 23:42:00,
2013-01-14 18:57:00,45.2,31.0,30.02,WNW,302,0.0,-999.0,59,-99.99,,,0.00,weatherlink.com 1.10,2013-01-14 23:57:00,
2013-01-14 19:12:00,44.5,31.0,30.03,North,11,0.0,-999.0,59,-99.99,,,0.00,weatherlink.com 1.10,2013-01-15 00:12:00,
2013-01-14 19:27:00,44.8,31.0,30.05,NNW,346,0.0,-999.0,59,-99.99,,,0.00,weatherlink.com 1.10,2013-01-15 00:27:00,
2013-01-14 19:42:00,44.3,31.0,30.05,NW,315,4.0,-999.0,59,-99.99,,,0.00,weatherlink.com 1.10,2013-01-15 00:42:00,
2013-01-14 19:57:00,44.2,30.0,30.05,NE,53,0.0,-999.0,59,-99.99,,,0.00,weatherlink.com 1.10,2013-01-15 00:57:00,
2013-01-14 20:12:00,43.8,31.0,30.08,NNW,329,0.0,-999.0,60,-99.99,,,0.00,weatherlink.com 1.10,2013-01-15 01:12:00,
2013-01-14 20:27:00,43.6,30.0,30.06,West,281,5.0,-999.0,60,-99.99,,,0.00,weatherlink.com 1.10,2013-01-15 01:27:00,
2013-01-14 20:42:00,43.4,30.0,30.07,NNW,329,0.0,-999.0,60,-99.99,,,0.00,weatherlink.com 1.10,2013-01-15 01:42:00,
2013-01-14 20:57:00,42.9,30.0,30.07,NW,306,0.0,-999.0,60,-99.99,,,0.00,weatherlink.com 1.10,2013-01-15 01:57:00,
2013-01-14 21:12:00,42.7,29.0,30.08,North,11,0.0,-999.0,59,-99.99,,,0.00,weatherlink.com 1.10,2013-01-15 02:12:00,
2013-01-14 21:27:00,42.4,29.0,30.07,NE,43,3.0,-999.0,59,-99.99,,,0.00,weatherlink.com 1.10,2013-01-15 02:27:00,
2013-01-14 21:42:00,42.1,28.0,30.07,NNE,13,1.0,-999.0,58,-99.99,,,0.00,weatherlink.com 1.10,2013-01-15 02:42:00,
2013-01-14 21:57:00,41.8,27.0,30.07,SSW,200,1.0,-999.0,57,-99.99,,,0.00,weatherlink.com 1.10,2013-01-15 02:57:00,
2013-01-14 22:12:00,41.5,28.0,30.07,NNE,23,5.0,-999.0,58,-99.99,,,0.00,weatherlink.com 1.10,2013-01-15 03:12:00,
2013-01-14 22:27:00,41.1,28.0,30.07,NNW,344,2.0,-999.0,60,-99.99,,,0.00,weatherlink.com 1.10,2013-01-15 03:27:00,
2013-01-14 22:42:00,40.7,28.0,30.09,NNE,26,0.0,-999.0,60,-99.99,,,0.00,weatherlink.com 1.10,2013-01-15 03:42:00,
2013-01-14 22:57:00,40.5,27.0,30.10,NNE,26,0.0,-999.0,60,-99.99,,,0.00,weatherlink.com 1.10,2013-01-15 03:57:00,
2013-01-14 23:12:00,40.0,28.0,30.10,NNE,24,0.0,-999.0,63,-99.99,,,0.00,weatherlink.com 1.10,2013-01-15 04:12:00,
2013-01-14 23:27:00,39.6,28.0,30.10,WNW,284,0.0,-999.0,63,-99.99,,,0.00,weatherlink.com 1.10,2013-01-15 04:27:00,
2013-01-14 23:42:00,39.4,28.0,30.11,WNW,288,0.0,-999.0,64,-99.99,,,0.00,weatherlink.com 1.10,2013-01-15 04:42:00,
2013-01-14 23:57:00,39.2,28.0,30.13,West,265,0.0,-999.0,65,-99.99,,,0.00,weatherlink.com 1.10,2013-01-15 04:57:00,